sensor_id;sensor_type;location;lat;lon;timestamp;P1;durP1;ratioP1;P2;durP2;ratioP2
49980;SDS011;35871;51.594;7.138;2023-08-17T05:48:49;4.73;;;2.57;;
49980;SDS011;35871;51.594;7.138;2023-08-17T05:53:50;3.17;;;1.83;;
49980;SDS011;35871;51.594;7.138;2023-08-17T05:58:51;2.13;;;1.60;;
49980;SDS011;35871;51.594;7.138;2023-08-17T06:03:52;5.53;;;2.50;;
49980;SDS011;35871;51.594;7.138;2023-08-17T06:08:53;6.15;;;2.33;;
49980;SDS011;35871;51.594;7.138;2023-08-17T06:13:54;8.05;;;2.55;;
49980;SDS011;35871;51.594;7.138;2023-08-17T06:18:55;5.53;;;2.78;;
49980;SDS011;35871;51.594;7.138;2023-08-17T06:23:56;6.93;;;2.53;;
49980;SDS011;35871;51.594;7.138;2023-08-17T06:28:57;3.58;;;2.70;;
49980;SDS011;35871;51.594;7.138;2023-08-17T06:33:58;5.10;;;2.65;;
49980;SDS011;35871;51.594;7.138;2023-08-17T06:38:59;5.25;;;1.70;;
49980;SDS011;35871;51.594;7.138;2023-08-17T06:44:00;3.03;;;1.73;;
49980;SDS011;35871;51.594;7.138;2023-08-17T06:49:01;5.25;;;1.80;;
49980;SDS011;35871;51.594;7.138;2023-08-17T06:54:03;4.10;;;2.03;;
49980;SDS011;35871;51.594;7.138;2023-08-17T06:59:04;5.60;;;2.15;;
49980;SDS011;35871;51.594;7.138;2023-08-17T07:04:05;6.53;;;2.55;;
49980;SDS011;35871;51.594;7.138;2023-08-17T07:09:06;4.35;;;2.05;;
49980;SDS011;35871;51.594;7.138;2023-08-17T07:14:07;3.70;;;1.50;;
49980;SDS011;35871;51.594;7.138;2023-08-17T07:19:08;2.60;;;1.60;;
49980;SDS011;35871;51.594;7.138;2023-08-17T07:24:13;4.55;;;1.85;;
49980;SDS011;35871;51.594;7.138;2023-08-17T07:29:15;3.63;;;2.28;;
49980;SDS011;35871;51.594;7.138;2023-08-17T07:34:17;5.60;;;1.90;;
49980;SDS011;35871;51.594;7.138;2023-08-17T07:39:22;3.63;;;2.10;;
49980;SDS011;35871;51.594;7.138;2023-08-17T07:44:29;4.07;;;2.65;;
49980;SDS011;35871;51.594;7.138;2023-08-17T07:49:43;6.53;;;2.55;;
49980;SDS011;35871;51.594;7.138;2023-08-17T08:12:27;5.07;;;2.83;;
49980;SDS011;35871;51.594;7.138;2023-08-17T08:18:13;3.87;;;2.60;;
49980;SDS011;35871;51.594;7.138;2023-08-17T08:34:38;4.18;;;2.58;;
49980;SDS011;35871;51.594;7.138;2023-08-17T08:40:18;3.45;;;2.40;;
49980;SDS011;35871;51.594;7.138;2023-08-17T08:51:10;7.00;;;2.53;;
49980;SDS011;35871;51.594;7.138;2023-08-17T08:56:37;4.88;;;2.63;;
49980;SDS011;35871;51.594;7.138;2023-08-17T09:01:40;3.90;;;2.05;;
49980;SDS011;35871;51.594;7.138;2023-08-17T09:06:52;5.75;;;3.10;;
49980;SDS011;35871;51.594;7.138;2023-08-17T09:23:02;2.35;;;1.80;;
49980;SDS011;35871;51.594;7.138;2023-08-17T09:28:24;4.53;;;2.17;;
49980;SDS011;35871;51.594;7.138;2023-08-17T09:33:34;6.53;;;2.35;;
49980;SDS011;35871;51.594;7.138;2023-08-17T09:38:39;4.55;;;2.50;;
49980;SDS011;35871;51.594;7.138;2023-08-17T09:43:42;6.82;;;2.90;;
49980;SDS011;35871;51.594;7.138;2023-08-17T09:48:43;5.75;;;2.55;;
49980;SDS011;35871;51.594;7.138;2023-08-17T09:53:51;3.97;;;2.78;;
49980;SDS011;35871;51.594;7.138;2023-08-17T09:58:53;5.28;;;3.72;;
49980;SDS011;35871;51.594;7.138;2023-08-17T10:03:54;5.35;;;3.67;;
49980;SDS011;35871;51.594;7.138;2023-08-17T10:08:56;6.05;;;3.58;;
49980;SDS011;35871;51.594;7.138;2023-08-17T10:14:02;4.28;;;3.17;;
49980;SDS011;35871;51.594;7.138;2023-08-17T10:24:09;5.95;;;3.42;;
49980;SDS011;35871;51.594;7.138;2023-08-17T10:29:11;5.75;;;3.25;;
49980;SDS011;35871;51.594;7.138;2023-08-17T10:34:13;7.53;;;4.05;;
49980;SDS011;35871;51.594;7.138;2023-08-17T10:39:19;6.80;;;4.53;;
49980;SDS011;35871;51.594;7.138;2023-08-17T10:44:37;6.07;;;4.03;;
49980;SDS011;35871;51.594;7.138;2023-08-17T10:49:44;7.00;;;4.35;;
49980;SDS011;35871;51.594;7.138;2023-08-17T10:54:53;6.55;;;3.95;;
49980;SDS011;35871;51.594;7.138;2023-08-17T11:00:56;6.05;;;4.50;;
49980;SDS011;35871;51.594;7.138;2023-08-17T11:05:45;9.65;;;4.63;;
49980;SDS011;35871;51.594;7.138;2023-08-17T11:16:37;6.05;;;4.70;;
49980;SDS011;35871;51.594;7.138;2023-08-17T11:22:05;8.80;;;4.78;;
49980;SDS011;35871;51.594;7.138;2023-08-17T11:27:11;6.90;;;5.15;;
49980;SDS011;35871;51.594;7.138;2023-08-17T11:32:15;7.53;;;5.32;;
49980;SDS011;35871;51.594;7.138;2023-08-17T11:37:17;7.20;;;4.80;;
49980;SDS011;35871;51.594;7.138;2023-08-17T11:42:26;7.82;;;5.13;;
49980;SDS011;35871;51.594;7.138;2023-08-17T11:47:27;6.40;;;4.70;;
49980;SDS011;35871;51.594;7.138;2023-08-17T11:52:28;9.70;;;4.85;;
49980;SDS011;35871;51.594;7.138;2023-08-17T11:57:32;8.55;;;5.85;;
49980;SDS011;35871;51.594;7.138;2023-08-17T12:02:34;7.00;;;4.88;;
49980;SDS011;35871;51.594;7.138;2023-08-17T12:07:37;6.90;;;4.93;;
49980;SDS011;35871;51.594;7.138;2023-08-17T12:12:38;7.47;;;5.10;;
49980;SDS011;35871;51.594;7.138;2023-08-17T12:17:47;8.60;;;4.95;;
49980;SDS011;35871;51.594;7.138;2023-08-17T12:22:48;10.23;;;5.57;;
49980;SDS011;35871;51.594;7.138;2023-08-17T12:27:50;10.02;;;6.85;;
49980;SDS011;35871;51.594;7.138;2023-08-17T12:32:51;7.82;;;6.45;;
49980;SDS011;35871;51.594;7.138;2023-08-17T12:37:52;6.85;;;5.82;;
49980;SDS011;35871;51.594;7.138;2023-08-17T12:42:53;10.63;;;6.35;;
49980;SDS011;35871;51.594;7.138;2023-08-17T12:47:54;5.88;;;5.28;;
49980;SDS011;35871;51.594;7.138;2023-08-17T12:52:55;6.40;;;5.38;;
49980;SDS011;35871;51.594;7.138;2023-08-17T12:57:56;6.90;;;6.13;;
49980;SDS011;35871;51.594;7.138;2023-08-17T13:02:57;8.25;;;5.22;;
49980;SDS011;35871;51.594;7.138;2023-08-17T13:07:58;8.90;;;6.00;;
49980;SDS011;35871;51.594;7.138;2023-08-17T13:13:00;8.80;;;5.40;;
49980;SDS011;35871;51.594;7.138;2023-08-17T13:18:01;8.52;;;5.30;;
49980;SDS011;35871;51.594;7.138;2023-08-17T13:23:02;6.68;;;5.47;;
49980;SDS011;35871;51.594;7.138;2023-08-17T13:28:03;9.40;;;6.10;;
49980;SDS011;35871;51.594;7.138;2023-08-17T13:33:04;9.85;;;6.32;;
49980;SDS011;35871;51.594;7.138;2023-08-17T13:38:08;8.10;;;6.00;;
49980;SDS011;35871;51.594;7.138;2023-08-17T13:43:09;8.30;;;6.20;;
49980;SDS011;35871;51.594;7.138;2023-08-17T13:48:13;9.15;;;6.00;;
49980;SDS011;35871;51.594;7.138;2023-08-17T13:53:14;9.55;;;6.43;;
49980;SDS011;35871;51.594;7.138;2023-08-17T13:58:15;8.68;;;5.80;;
49980;SDS011;35871;51.594;7.138;2023-08-17T14:03:16;8.40;;;5.78;;
49980;SDS011;35871;51.594;7.138;2023-08-17T14:08:17;11.75;;;9.57;;
49980;SDS011;35871;51.594;7.138;2023-08-17T14:13:19;7.80;;;5.70;;
49980;SDS011;35871;51.594;7.138;2023-08-17T14:18:20;8.32;;;6.13;;
49980;SDS011;35871;51.594;7.138;2023-08-17T14:23:21;9.38;;;5.82;;
49980;SDS011;35871;51.594;7.138;2023-08-17T14:28:22;8.82;;;5.97;;
49980;SDS011;35871;51.594;7.138;2023-08-17T14:33:23;8.63;;;6.05;;
49980;SDS011;35871;51.594;7.138;2023-08-17T14:38:24;9.18;;;6.57;;
49980;SDS011;35871;51.594;7.138;2023-08-17T14:43:25;8.68;;;5.60;;
49980;SDS011;35871;51.594;7.138;2023-08-17T14:48:26;9.32;;;6.25;;
49980;SDS011;35871;51.594;7.138;2023-08-17T14:53:27;10.35;;;5.55;;
49980;SDS011;35871;51.594;7.138;2023-08-17T14:58:29;9.43;;;5.55;;
49980;SDS011;35871;51.594;7.138;2023-08-17T15:03:30;8.95;;;5.95;;
49980;SDS011;35871;51.594;7.138;2023-08-17T15:08:31;9.63;;;5.80;;
49980;SDS011;35871;51.594;7.138;2023-08-17T15:13:32;8.15;;;6.40;;
49980;SDS011;35871;51.594;7.138;2023-08-17T15:18:33;8.98;;;6.53;;
49980;SDS011;35871;51.594;7.138;2023-08-17T15:23:34;7.10;;;5.53;;
49980;SDS011;35871;51.594;7.138;2023-08-17T15:28:35;8.23;;;5.20;;
49980;SDS011;35871;51.594;7.138;2023-08-17T15:33:36;6.45;;;5.75;;
49980;SDS011;35871;51.594;7.138;2023-08-17T15:38:40;6.95;;;5.30;;
49980;SDS011;35871;51.594;7.138;2023-08-17T15:43:41;7.00;;;4.57;;
49980;SDS011;35871;51.594;7.138;2023-08-17T15:48:42;7.22;;;4.50;;
49980;SDS011;35871;51.594;7.138;2023-08-17T15:53:43;7.32;;;4.38;;
49980;SDS011;35871;51.594;7.138;2023-08-17T15:58:44;4.80;;;4.40;;
49980;SDS011;35871;51.594;7.138;2023-08-17T16:03:49;8.18;;;4.78;;
49980;SDS011;35871;51.594;7.138;2023-08-17T16:08:53;6.28;;;4.13;;
49980;SDS011;35871;51.594;7.138;2023-08-17T16:13:57;4.93;;;3.92;;
49980;SDS011;35871;51.594;7.138;2023-08-17T16:18:58;5.15;;;3.70;;
49980;SDS011;35871;51.594;7.138;2023-08-17T16:23:59;6.57;;;4.60;;
49980;SDS011;35871;51.594;7.138;2023-08-17T16:29:09;6.25;;;5.22;;
49980;SDS011;35871;51.594;7.138;2023-08-17T16:34:21;5.43;;;4.72;;
49980;SDS011;35871;51.594;7.138;2023-08-17T16:39:22;7.68;;;6.88;;
49980;SDS011;35871;51.594;7.138;2023-08-17T16:44:26;5.30;;;4.80;;
49980;SDS011;35871;51.594;7.138;2023-08-17T16:49:29;5.28;;;4.10;;
49980;SDS011;35871;51.594;7.138;2023-08-17T16:54:34;6.55;;;5.68;;
49980;SDS011;35871;51.594;7.138;2023-08-17T16:59:59;5.78;;;5.25;;
49980;SDS011;35871;51.594;7.138;2023-08-17T17:05:07;5.38;;;4.80;;
49980;SDS011;35871;51.594;7.138;2023-08-17T17:10:09;6.15;;;5.18;;
49980;SDS011;35871;51.594;7.138;2023-08-17T17:15:10;7.25;;;6.22;;
49980;SDS011;35871;51.594;7.138;2023-08-17T17:20:11;9.18;;;7.90;;
49980;SDS011;35871;51.594;7.138;2023-08-17T17:25:12;8.05;;;5.53;;
